sensor_id;sensor_type;location;lat;lon;timestamp;P1;durP1;ratioP1;P2;durP2;ratioP2
74957;SDS011;63741;42.624;26.276;2024-01-25T00:01:00;23.67;;;12.60;;
74957;SDS011;63741;42.624;26.276;2024-01-25T00:03:27;21.73;;;13.50;;
74957;SDS011;63741;42.624;26.276;2024-01-25T00:05:54;18.30;;;10.60;;
74957;SDS011;63741;42.624;26.276;2024-01-25T00:08:21;18.25;;;10.60;;
74957;SDS011;63741;42.624;26.276;2024-01-25T00:10:48;22.10;;;11.32;;
74957;SDS011;63741;42.624;26.276;2024-01-25T00:13:16;21.70;;;10.38;;
74957;SDS011;63741;42.624;26.276;2024-01-25T00:15:43;14.43;;;8.07;;
74957;SDS011;63741;42.624;26.276;2024-01-25T00:18:10;13.52;;;7.10;;
74957;SDS011;63741;42.624;26.276;2024-01-25T00:20:37;13.43;;;7.28;;
74957;SDS011;63741;42.624;26.276;2024-01-25T00:23:05;13.25;;;7.30;;
74957;SDS011;63741;42.624;26.276;2024-01-25T00:25:32;15.43;;;8.30;;
74957;SDS011;63741;42.624;26.276;2024-01-25T00:27:59;16.95;;;9.30;;
74957;SDS011;63741;42.624;26.276;2024-01-25T00:30:26;18.35;;;10.77;;
74957;SDS011;63741;42.624;26.276;2024-01-25T00:32:53;22.73;;;11.52;;
74957;SDS011;63741;42.624;26.276;2024-01-25T00:35:21;17.90;;;10.05;;
74957;SDS011;63741;42.624;26.276;2024-01-25T00:37:48;13.98;;;8.35;;
74957;SDS011;63741;42.624;26.276;2024-01-25T00:40:16;13.52;;;8.02;;
74957;SDS011;63741;42.624;26.276;2024-01-25T00:42:46;14.65;;;8.10;;
74957;SDS011;63741;42.624;26.276;2024-01-25T00:45:20;14.40;;;8.15;;
74957;SDS011;63741;42.624;26.276;2024-01-25T00:47:48;18.85;;;10.13;;
74957;SDS011;63741;42.624;26.276;2024-01-25T00:50:16;15.25;;;8.20;;
74957;SDS011;63741;42.624;26.276;2024-01-25T00:52:46;17.45;;;8.63;;
74957;SDS011;63741;42.624;26.276;2024-01-25T00:55:15;51.70;;;18.95;;
74957;SDS011;63741;42.624;26.276;2024-01-25T00:57:43;15.30;;;7.82;;
74957;SDS011;63741;42.624;26.276;2024-01-25T01:00:11;14.63;;;7.00;;
74957;SDS011;63741;42.624;26.276;2024-01-25T01:02:44;11.88;;;6.55;;
74957;SDS011;63741;42.624;26.276;2024-01-25T01:05:12;19.88;;;8.95;;
74957;SDS011;63741;42.624;26.276;2024-01-25T01:07:40;243.70;;;71.43;;
74957;SDS011;63741;42.624;26.276;2024-01-25T01:10:08;166.27;;;46.55;;
74957;SDS011;63741;42.624;26.276;2024-01-25T01:12:36;61.30;;;19.92;;
74957;SDS011;63741;42.624;26.276;2024-01-25T01:15:04;70.22;;;24.73;;
74957;SDS011;63741;42.624;26.276;2024-01-25T01:17:31;37.28;;;14.38;;
74957;SDS011;63741;42.624;26.276;2024-01-25T01:19:58;16.40;;;7.88;;
74957;SDS011;63741;42.624;26.276;2024-01-25T01:22:26;15.05;;;7.68;;
74957;SDS011;63741;42.624;26.276;2024-01-25T01:24:53;18.05;;;6.95;;
74957;SDS011;63741;42.624;26.276;2024-01-25T01:27:20;22.13;;;7.53;;
74957;SDS011;63741;42.624;26.276;2024-01-25T01:29:48;51.88;;;16.38;;
74957;SDS011;63741;42.624;26.276;2024-01-25T01:32:15;27.98;;;11.02;;
74957;SDS011;63741;42.624;26.276;2024-01-25T01:34:42;19.83;;;9.25;;
74957;SDS011;63741;42.624;26.276;2024-01-25T01:37:09;15.68;;;7.88;;
74957;SDS011;63741;42.624;26.276;2024-01-25T01:39:36;13.25;;;7.40;;
74957;SDS011;63741;42.624;26.276;2024-01-25T01:42:03;16.38;;;7.88;;
74957;SDS011;63741;42.624;26.276;2024-01-25T01:44:30;12.13;;;7.00;;
74957;SDS011;63741;42.624;26.276;2024-01-25T01:46:57;12.63;;;7.65;;
74957;SDS011;63741;42.624;26.276;2024-01-25T01:49:25;16.45;;;8.88;;
74957;SDS011;63741;42.624;26.276;2024-01-25T01:51:52;20.90;;;10.63;;
74957;SDS011;63741;42.624;26.276;2024-01-25T01:54:20;23.10;;;10.63;;
74957;SDS011;63741;42.624;26.276;2024-01-25T01:56:47;27.30;;;11.93;;
74957;SDS011;63741;42.624;26.276;2024-01-25T01:59:14;18.80;;;10.60;;
74957;SDS011;63741;42.624;26.276;2024-01-25T02:01:42;16.42;;;8.35;;
74957;SDS011;63741;42.624;26.276;2024-01-25T02:04:10;14.60;;;8.18;;
74957;SDS011;63741;42.624;26.276;2024-01-25T02:06:37;16.48;;;8.02;;
74957;SDS011;63741;42.624;26.276;2024-01-25T02:09:04;32.97;;;8.40;;
74957;SDS011;63741;42.624;26.276;2024-01-25T02:11:31;17.92;;;8.63;;
74957;SDS011;63741;42.624;26.276;2024-01-25T02:13:58;15.15;;;7.82;;
74957;SDS011;63741;42.624;26.276;2024-01-25T02:16:25;17.00;;;8.10;;
74957;SDS011;63741;42.624;26.276;2024-01-25T02:18:52;16.75;;;8.77;;
74957;SDS011;63741;42.624;26.276;2024-01-25T02:21:21;19.70;;;8.20;;
74957;SDS011;63741;42.624;26.276;2024-01-25T02:23:48;15.98;;;8.43;;
74957;SDS011;63741;42.624;26.276;2024-01-25T02:26:16;15.02;;;8.27;;
74957;SDS011;63741;42.624;26.276;2024-01-25T02:28:43;15.73;;;8.05;;
74957;SDS011;63741;42.624;26.276;2024-01-25T02:31:10;17.42;;;8.43;;
74957;SDS011;63741;42.624;26.276;2024-01-25T02:33:37;21.23;;;11.73;;
74957;SDS011;63741;42.624;26.276;2024-01-25T02:36:04;19.70;;;11.38;;
74957;SDS011;63741;42.624;26.276;2024-01-25T02:38:32;20.63;;;10.73;;
74957;SDS011;63741;42.624;26.276;2024-01-25T02:40:59;18.75;;;10.25;;
74957;SDS011;63741;42.624;26.276;2024-01-25T02:43:25;27.33;;;15.27;;
74957;SDS011;63741;42.624;26.276;2024-01-25T02:45:53;21.17;;;11.77;;
74957;SDS011;63741;42.624;26.276;2024-01-25T02:48:20;17.42;;;9.70;;
74957;SDS011;63741;42.624;26.276;2024-01-25T02:50:48;17.58;;;10.05;;
74957;SDS011;63741;42.624;26.276;2024-01-25T02:53:15;23.33;;;11.23;;
74957;SDS011;63741;42.624;26.276;2024-01-25T02:55:42;20.50;;;10.48;;
74957;SDS011;63741;42.624;26.276;2024-01-25T02:58:09;20.35;;;9.90;;
74957;SDS011;63741;42.624;26.276;2024-01-25T03:00:36;19.70;;;10.52;;
74957;SDS011;63741;42.624;26.276;2024-01-25T03:03:03;19.23;;;11.77;;
74957;SDS011;63741;42.624;26.276;2024-01-25T03:05:30;20.15;;;11.60;;
74957;SDS011;63741;42.624;26.276;2024-01-25T03:07:57;21.20;;;13.20;;
74957;SDS011;63741;42.624;26.276;2024-01-25T03:10:24;26.60;;;14.25;;
74957;SDS011;63741;42.624;26.276;2024-01-25T03:12:51;40.65;;;14.50;;
74957;SDS011;63741;42.624;26.276;2024-01-25T03:15:18;31.77;;;13.25;;
74957;SDS011;63741;42.624;26.276;2024-01-25T03:17:45;33.85;;;13.07;;
74957;SDS011;63741;42.624;26.276;2024-01-25T03:20:12;28.80;;;13.82;;
74957;SDS011;63741;42.624;26.276;2024-01-25T03:22:39;32.30;;;19.13;;
74957;SDS011;63741;42.624;26.276;2024-01-25T03:25:06;35.03;;;19.38;;
74957;SDS011;63741;42.624;26.276;2024-01-25T03:27:35;33.10;;;19.45;;
74957;SDS011;63741;42.624;26.276;2024-01-25T03:30:02;29.45;;;16.98;;
74957;SDS011;63741;42.624;26.276;2024-01-25T03:32:32;31.60;;;17.67;;
74957;SDS011;63741;42.624;26.276;2024-01-25T03:35:00;42.78;;;19.23;;
74957;SDS011;63741;42.624;26.276;2024-01-25T03:37:28;48.25;;;22.05;;
74957;SDS011;63741;42.624;26.276;2024-01-25T03:39:55;75.47;;;29.70;;
74957;SDS011;63741;42.624;26.276;2024-01-25T03:42:22;91.65;;;38.42;;
74957;SDS011;63741;42.624;26.276;2024-01-25T03:44:49;45.13;;;20.00;;
74957;SDS011;63741;42.624;26.276;2024-01-25T03:47:16;34.75;;;17.50;;
74957;SDS011;63741;42.624;26.276;2024-01-25T03:49:43;41.65;;;20.90;;
74957;SDS011;63741;42.624;26.276;2024-01-25T03:52:10;63.30;;;29.05;;
74957;SDS011;63741;42.624;26.276;2024-01-25T03:54:37;45.28;;;22.20;;
74957;SDS011;63741;42.624;26.276;2024-01-25T03:57:04;42.10;;;19.92;;
74957;SDS011;63741;42.624;26.276;2024-01-25T03:59:31;27.00;;;12.88;;
74957;SDS011;63741;42.624;26.276;2024-01-25T04:01:58;25.35;;;11.45;;
74957;SDS011;63741;42.624;26.276;2024-01-25T04:04:26;20.13;;;11.02;;
74957;SDS011;63741;42.624;26.276;2024-01-25T04:06:53;20.33;;;10.88;;
74957;SDS011;63741;42.624;26.276;2024-01-25T04:09:20;23.23;;;11.75;;
74957;SDS011;63741;42.624;26.276;2024-01-25T04:11:47;38.15;;;19.10;;
74957;SDS011;63741;42.624;26.276;2024-01-25T04:14:14;28.95;;;15.10;;
74957;SDS011;63741;42.624;26.276;2024-01-25T04:16:42;42.33;;;16.73;;
74957;SDS011;63741;42.624;26.276;2024-01-25T04:19:09;134.60;;;46.17;;
74957;SDS011;63741;42.624;26.276;2024-01-25T04:21:39;90.20;;;39.33;;
74957;SDS011;63741;42.624;26.276;2024-01-25T04:24:06;85.43;;;36.25;;
74957;SDS011;63741;42.624;26.276;2024-01-25T04:26:33;63.22;;;24.42;;
74957;SDS011;63741;42.624;26.276;2024-01-25T04:29:00;57.53;;;23.67;;
74957;SDS011;63741;42.624;26.276;2024-01-25T04:31:27;42.47;;;20.60;;
74957;SDS011;63741;42.624;26.276;2024-01-25T04:33:54;39.78;;;19.85;;
74957;SDS011;63741;42.624;26.276;2024-01-25T04:36:21;40.78;;;19.88;;
74957;SDS011;63741;42.624;26.276;2024-01-25T04:38:48;40.67;;;18.45;;
74957;SDS011;63741;42.624;26.276;2024-01-25T04:41:16;40.55;;;17.25;;
74957;SDS011;63741;42.624;26.276;2024-01-25T04:43:43;36.20;;;19.60;;
74957;SDS011;63741;42.624;26.276;2024-01-25T04:46:10;34.72;;;16.73;;
74957;SDS011;63741;42.624;26.276;2024-01-25T04:48:37;42.00;;;17.05;;
74957;SDS011;63741;42.624;26.276;2024-01-25T04:51:04;35.97;;;17.85;;
74957;SDS011;63741;42.624;26.276;2024-01-25T04:53:31;39.28;;;21.23;;
74957;SDS011;63741;42.624;26.276;2024-01-25T04:55:58;49.58;;;23.60;;
74957;SDS011;63741;42.624;26.276;2024-01-25T04:58:26;46.67;;;23.75;;
74957;SDS011;63741;42.624;26.276;2024-01-25T05:00:53;49.20;;;23.88;;
74957;SDS011;63741;42.624;26.276;2024-01-25T05:03:22;57.50;;;25.65;;
74957;SDS011;63741;42.624;26.276;2024-01-25T05:05:49;68.93;;;28.90;;
74957;SDS011;63741;42.624;26.276;2024-01-25T05:08:16;62.00;;;26.67;;
74957;SDS011;63741;42.624;26.276;2024-01-25T05:10:43;60.67;;;25.27;;
74957;SDS011;63741;42.624;26.276;2024-01-25T05:13:11;69.53;;;27.85;;
74957;SDS011;63741;42.624;26.276;2024-01-25T05:15:38;53.65;;;22.08;;
74957;SDS011;63741;42.624;26.276;2024-01-25T05:18:06;47.33;;;24.05;;
74957;SDS011;63741;42.624;26.276;2024-01-25T05:20:33;44.70;;;19.00;;
74957;SDS011;63741;42.624;26.276;2024-01-25T05:23:03;38.80;;;21.75;;
74957;SDS011;63741;42.624;26.276;2024-01-25T05:25:31;36.28;;;18.27;;
74957;SDS011;63741;42.624;26.276;2024-01-25T05:27:58;64.93;;;29.65;;
74957;SDS011;63741;42.624;26.276;2024-01-25T05:30:26;33.92;;;18.65;;
74957;SDS011;63741;42.624;26.276;2024-01-25T05:32:54;44.03;;;18.45;;
74957;SDS011;63741;42.624;26.276;2024-01-25T05:35:22;42.33;;;20.00;;
74957;SDS011;63741;42.624;26.276;2024-01-25T05:37:50;49.05;;;22.25;;
74957;SDS011;63741;42.624;26.276;2024-01-25T05:40:18;83.03;;;37.65;;
74957;SDS011;63741;42.624;26.276;2024-01-25T05:42:45;25.23;;;12.80;;
74957;SDS011;63741;42.624;26.276;2024-01-25T05:45:12;115.63;;;38.88;;
74957;SDS011;63741;42.624;26.276;2024-01-25T05:47:39;86.25;;;32.60;;
74957;SDS011;63741;42.624;26.276;2024-01-25T05:50:06;58.55;;;21.73;;
74957;SDS011;63741;42.624;26.276;2024-01-25T05:52:34;112.20;;;59.90;;
74957;SDS011;63741;42.624;26.276;2024-01-25T05:55:04;67.65;;;28.23;;
74957;SDS011;63741;42.624;26.276;2024-01-25T05:57:34;41.13;;;20.55;;
74957;SDS011;63741;42.624;26.276;2024-01-25T06:00:02;56.45;;;22.83;;
74957;SDS011;63741;42.624;26.276;2024-01-25T06:02:33;84.25;;;42.78;;
74957;SDS011;63741;42.624;26.276;2024-01-25T06:05:00;76.75;;;32.03;;
74957;SDS011;63741;42.624;26.276;2024-01-25T06:07:28;61.50;;;28.45;;
74957;SDS011;63741;42.624;26.276;2024-01-25T06:09:55;45.83;;;19.58;;
74957;SDS011;63741;42.624;26.276;2024-01-25T06:12:22;59.22;;;26.50;;
74957;SDS011;63741;42.624;26.276;2024-01-25T06:14:49;59.55;;;29.73;;
74957;SDS011;63741;42.624;26.276;2024-01-25T06:17:18;62.10;;;32.42;;
74957;SDS011;63741;42.624;26.276;2024-01-25T06:19:45;82.88;;;43.95;;
74957;SDS011;63741;42.624;26.276;2024-01-25T06:22:13;77.45;;;35.90;;
74957;SDS011;63741;42.624;26.276;2024-01-25T06:24:40;67.20;;;26.42;;
74957;SDS011;63741;42.624;26.276;2024-01-25T06:27:07;55.47;;;25.38;;
74957;SDS011;63741;42.624;26.276;2024-01-25T06:29:35;57.30;;;26.60;;
74957;SDS011;63741;42.624;26.276;2024-01-25T06:32:03;62.63;;;30.00;;
74957;SDS011;63741;42.624;26.276;2024-01-25T06:34:39;52.58;;;22.10;;
74957;SDS011;63741;42.624;26.276;2024-01-25T06:37:06;41.47;;;18.98;;
74957;SDS011;63741;42.624;26.276;2024-01-25T06:39:33;55.50;;;23.02;;
74957;SDS011;63741;42.624;26.276;2024-01-25T06:42:01;49.53;;;21.48;;
74957;SDS011;63741;42.624;26.276;2024-01-25T06:44:28;23.92;;;13.40;;
74957;SDS011;63741;42.624;26.276;2024-01-25T06:46:55;22.45;;;12.43;;
74957;SDS011;63741;42.624;26.276;2024-01-25T06:49:22;49.60;;;17.92;;
74957;SDS011;63741;42.624;26.276;2024-01-25T06:51:49;41.05;;;18.70;;
74957;SDS011;63741;42.624;26.276;2024-01-25T06:54:16;24.13;;;11.23;;
74957;SDS011;63741;42.624;26.276;2024-01-25T06:56:43;27.48;;;12.25;;
74957;SDS011;63741;42.624;26.276;2024-01-25T06:59:10;26.63;;;13.45;;
74957;SDS011;63741;42.624;26.276;2024-01-25T07:01:38;35.97;;;15.93;;
74957;SDS011;63741;42.624;26.276;2024-01-25T07:04:06;35.95;;;17.17;;
74957;SDS011;63741;42.624;26.276;2024-01-25T07:06:33;12.95;;;6.78;;
74957;SDS011;63741;42.624;26.276;2024-01-25T07:09:00;13.10;;;6.88;;
74957;SDS011;63741;42.624;26.276;2024-01-25T07:11:27;16.08;;;7.68;;
74957;SDS011;63741;42.624;26.276;2024-01-25T07:13:54;37.47;;;9.07;;
74957;SDS011;63741;42.624;26.276;2024-01-25T07:16:21;15.20;;;7.40;;
74957;SDS011;63741;42.624;26.276;2024-01-25T07:18:49;24.35;;;8.00;;
74957;SDS011;63741;42.624;26.276;2024-01-25T07:21:17;26.70;;;8.45;;
74957;SDS011;63741;42.624;26.276;2024-01-25T07:23:43;10.93;;;5.13;;
74957;SDS011;63741;42.624;26.276;2024-01-25T07:26:15;13.23;;;3.90;;
74957;SDS011;63741;42.624;26.276;2024-01-25T07:28:43;7.57;;;4.25;;
74957;SDS011;63741;42.624;26.276;2024-01-25T07:31:10;8.25;;;2.97;;
74957;SDS011;63741;42.624;26.276;2024-01-25T07:33:37;13.45;;;5.47;;
74957;SDS011;63741;42.624;26.276;2024-01-25T07:36:05;8.85;;;2.22;;
74957;SDS011;63741;42.624;26.276;2024-01-25T07:38:32;8.98;;;3.30;;
74957;SDS011;63741;42.624;26.276;2024-01-25T07:40:59;16.08;;;2.03;;
74957;SDS011;63741;42.624;26.276;2024-01-25T07:43:26;21.38;;;2.83;;
74957;SDS011;63741;42.624;26.276;2024-01-25T07:45:53;9.20;;;3.95;;
74957;SDS011;63741;42.624;26.276;2024-01-25T07:48:20;32.95;;;4.18;;
74957;SDS011;63741;42.624;26.276;2024-01-25T07:50:47;19.77;;;2.17;;
74957;SDS011;63741;42.624;26.276;2024-01-25T07:53:15;8.40;;;3.20;;
74957;SDS011;63741;42.624;26.276;2024-01-25T07:55:42;15.60;;;3.38;;
74957;SDS011;63741;42.624;26.276;2024-01-25T07:58:09;24.90;;;6.70;;
74957;SDS011;63741;42.624;26.276;2024-01-25T08:00:37;21.65;;;4.60;;
74957;SDS011;63741;42.624;26.276;2024-01-25T08:03:04;9.27;;;2.35;;
74957;SDS011;63741;42.624;26.276;2024-01-25T08:05:32;7.97;;;3.28;;
74957;SDS011;63741;42.624;26.276;2024-01-25T08:08:10;8.90;;;3.13;;
74957;SDS011;63741;42.624;26.276;2024-01-25T08:10:38;15.18;;;5.90;;
74957;SDS011;63741;42.624;26.276;2024-01-25T08:13:05;58.80;;;7.80;;
74957;SDS011;63741;42.624;26.276;2024-01-25T08:15:33;45.33;;;4.50;;
74957;SDS011;63741;42.624;26.276;2024-01-25T08:18:01;18.88;;;2.20;;
74957;SDS011;63741;42.624;26.276;2024-01-25T08:20:29;22.98;;;2.38;;
74957;SDS011;63741;42.624;26.276;2024-01-25T08:22:56;18.92;;;2.85;;
74957;SDS011;63741;42.624;26.276;2024-01-25T08:25:23;10.23;;;2.30;;
74957;SDS011;63741;42.624;26.276;2024-01-25T08:27:51;28.35;;;2.17;;
74957;SDS011;63741;42.624;26.276;2024-01-25T08:30:18;35.03;;;3.35;;
74957;SDS011;63741;42.624;26.276;2024-01-25T08:32:45;6.25;;;1.73;;
74957;SDS011;63741;42.624;26.276;2024-01-25T08:35:12;14.23;;;1.88;;
74957;SDS011;63741;42.624;26.276;2024-01-25T08:37:39;13.52;;;2.25;;
74957;SDS011;63741;42.624;26.276;2024-01-25T08:40:06;6.45;;;1.50;;
74957;SDS011;63741;42.624;26.276;2024-01-25T08:42:35;67.03;;;5.82;;
74957;SDS011;63741;42.624;26.276;2024-01-25T08:45:02;8.43;;;4.05;;
74957;SDS011;63741;42.624;26.276;2024-01-25T08:47:31;15.45;;;4.22;;
74957;SDS011;63741;42.624;26.276;2024-01-25T08:50:01;11.98;;;2.67;;
74957;SDS011;63741;42.624;26.276;2024-01-25T08:52:28;17.15;;;4.80;;
74957;SDS011;63741;42.624;26.276;2024-01-25T08:54:56;36.00;;;3.35;;
74957;SDS011;63741;42.624;26.276;2024-01-25T08:57:23;27.02;;;4.25;;
74957;SDS011;63741;42.624;26.276;2024-01-25T08:59:50;26.10;;;3.28;;
74957;SDS011;63741;42.624;26.276;2024-01-25T09:02:17;16.08;;;3.05;;
74957;SDS011;63741;42.624;26.276;2024-01-25T09:04:45;18.23;;;3.28;;
74957;SDS011;63741;42.624;26.276;2024-01-25T09:07:12;19.58;;;3.75;;
74957;SDS011;63741;42.624;26.276;2024-01-25T09:09:39;14.13;;;3.25;;
74957;SDS011;63741;42.624;26.276;2024-01-25T09:12:06;14.52;;;2.30;;
74957;SDS011;63741;42.624;26.276;2024-01-25T09:14:37;10.32;;;2.80;;
74957;SDS011;63741;42.624;26.276;2024-01-25T09:17:04;39.35;;;4.00;;
74957;SDS011;63741;42.624;26.276;2024-01-25T09:19:31;41.70;;;4.30;;
74957;SDS011;63741;42.624;26.276;2024-01-25T09:21:59;29.58;;;3.22;;
74957;SDS011;63741;42.624;26.276;2024-01-25T09:24:30;20.25;;;2.90;;
74957;SDS011;63741;42.624;26.276;2024-01-25T09:26:57;6.35;;;2.28;;
74957;SDS011;63741;42.624;26.276;2024-01-25T09:29:26;9.45;;;2.40;;
74957;SDS011;63741;42.624;26.276;2024-01-25T09:31:53;8.70;;;2.78;;
74957;SDS011;63741;42.624;26.276;2024-01-25T09:34:21;19.65;;;2.85;;
74957;SDS011;63741;42.624;26.276;2024-01-25T09:36:48;9.10;;;2.40;;
74957;SDS011;63741;42.624;26.276;2024-01-25T09:39:16;12.07;;;2.03;;
74957;SDS011;63741;42.624;26.276;2024-01-25T09:41:44;23.25;;;2.35;;
74957;SDS011;63741;42.624;26.276;2024-01-25T09:44:13;83.93;;;5.43;;
74957;SDS011;63741;42.624;26.276;2024-01-25T09:46:40;12.38;;;2.20;;
74957;SDS011;63741;42.624;26.276;2024-01-25T09:49:09;19.60;;;2.65;;
74957;SDS011;63741;42.624;26.276;2024-01-25T09:51:37;15.15;;;2.42;;
74957;SDS011;63741;42.624;26.276;2024-01-25T09:54:05;22.92;;;4.45;;
74957;SDS011;63741;42.624;26.276;2024-01-25T09:56:32;24.05;;;3.95;;
74957;SDS011;63741;42.624;26.276;2024-01-25T09:59:03;7.32;;;2.35;;
74957;SDS011;63741;42.624;26.276;2024-01-25T10:01:31;68.97;;;4.53;;
74957;SDS011;63741;42.624;26.276;2024-01-25T10:03:58;32.15;;;3.55;;
74957;SDS011;63741;42.624;26.276;2024-01-25T10:06:26;30.50;;;6.18;;
74957;SDS011;63741;42.624;26.276;2024-01-25T10:08:54;12.45;;;4.20;;
74957;SDS011;63741;42.624;26.276;2024-01-25T10:11:22;13.30;;;5.30;;
74957;SDS011;63741;42.624;26.276;2024-01-25T10:13:49;9.40;;;3.92;;
74957;SDS011;63741;42.624;26.276;2024-01-25T10:16:17;6.07;;;2.50;;
74957;SDS011;63741;42.624;26.276;2024-01-25T10:18:46;10.90;;;2.33;;
74957;SDS011;63741;42.624;26.276;2024-01-25T10:21:15;14.88;;;2.67;;
74957;SDS011;63741;42.624;26.276;2024-01-25T10:23:44;14.48;;;2.10;;
74957;SDS011;63741;42.624;26.276;2024-01-25T10:26:16;22.45;;;2.22;;
74957;SDS011;63741;42.624;26.276;2024-01-25T10:28:53;19.80;;;2.25;;
74957;SDS011;63741;42.624;26.276;2024-01-25T10:31:28;9.27;;;1.92;;
74957;SDS011;63741;42.624;26.276;2024-01-25T10:33:56;11.18;;;2.60;;
74957;SDS011;63741;42.624;26.276;2024-01-25T10:36:24;26.35;;;2.80;;
74957;SDS011;63741;42.624;26.276;2024-01-25T10:38:52;8.73;;;1.70;;
74957;SDS011;63741;42.624;26.276;2024-01-25T10:41:20;8.57;;;2.65;;
74957;SDS011;63741;42.624;26.276;2024-01-25T10:43:54;36.47;;;3.10;;
74957;SDS011;63741;42.624;26.276;2024-01-25T10:46:21;9.15;;;1.60;;
74957;SDS011;63741;42.624;26.276;2024-01-25T10:48:48;6.10;;;1.65;;
74957;SDS011;63741;42.624;26.276;2024-01-25T10:51:17;11.25;;;2.03;;
74957;SDS011;63741;42.624;26.276;2024-01-25T10:53:47;5.80;;;1.70;;
74957;SDS011;63741;42.624;26.276;2024-01-25T10:56:14;11.25;;;1.95;;
74957;SDS011;63741;42.624;26.276;2024-01-25T10:58:41;9.82;;;1.77;;
74957;SDS011;63741;42.624;26.276;2024-01-25T11:01:10;11.40;;;1.83;;
74957;SDS011;63741;42.624;26.276;2024-01-25T11:03:42;35.63;;;3.38;;
74957;SDS011;63741;42.624;26.276;2024-01-25T11:06:12;10.73;;;4.50;;
74957;SDS011;63741;42.624;26.276;2024-01-25T11:08:40;5.63;;;1.92;;
74957;SDS011;63741;42.624;26.276;2024-01-25T11:11:13;11.15;;;2.08;;
74957;SDS011;63741;42.624;26.276;2024-01-25T11:13:42;14.10;;;2.60;;
74957;SDS011;63741;42.624;26.276;2024-01-25T11:16:24;15.15;;;2.35;;
74957;SDS011;63741;42.624;26.276;2024-01-25T11:19:01;14.00;;;3.35;;
74957;SDS011;63741;42.624;26.276;2024-01-25T11:21:42;7.65;;;1.80;;
74957;SDS011;63741;42.624;26.276;2024-01-25T11:24:14;8.93;;;2.38;;
74957;SDS011;63741;42.624;26.276;2024-01-25T11:26:55;10.50;;;2.83;;
74957;SDS011;63741;42.624;26.276;2024-01-25T11:29:22;13.45;;;3.15;;
74957;SDS011;63741;42.624;26.276;2024-01-25T11:31:51;22.35;;;7.05;;
74957;SDS011;63741;42.624;26.276;2024-01-25T11:34:19;15.57;;;2.50;;
74957;SDS011;63741;42.624;26.276;2024-01-25T11:36:47;27.92;;;5.32;;
74957;SDS011;63741;42.624;26.276;2024-01-25T11:39:15;9.63;;;2.90;;
74957;SDS011;63741;42.624;26.276;2024-01-25T11:41:43;23.88;;;2.70;;
74957;SDS011;63741;42.624;26.276;2024-01-25T11:44:11;20.30;;;3.20;;
74957;SDS011;63741;42.624;26.276;2024-01-25T11:46:39;14.80;;;2.72;;
74957;SDS011;63741;42.624;26.276;2024-01-25T11:49:07;41.13;;;4.78;;
74957;SDS011;63741;42.624;26.276;2024-01-25T11:51:34;35.92;;;6.57;;
74957;SDS011;63741;42.624;26.276;2024-01-25T11:54:01;44.42;;;8.45;;
74957;SDS011;63741;42.624;26.276;2024-01-25T11:56:32;34.67;;;6.13;;
74957;SDS011;63741;42.624;26.276;2024-01-25T11:59:02;8.00;;;3.28;;
74957;SDS011;63741;42.624;26.276;2024-01-25T12:01:29;15.25;;;6.55;;
74957;SDS011;63741;42.624;26.276;2024-01-25T12:03:57;15.13;;;4.00;;
74957;SDS011;63741;42.624;26.276;2024-01-25T12:06:24;10.57;;;3.65;;
74957;SDS011;63741;42.624;26.276;2024-01-25T12:08:52;18.67;;;7.07;;
74957;SDS011;63741;42.624;26.276;2024-01-25T12:11:19;14.02;;;4.70;;
74957;SDS011;63741;42.624;26.276;2024-01-25T12:13:48;13.25;;;3.60;;
74957;SDS011;63741;42.624;26.276;2024-01-25T12:16:15;27.52;;;3.70;;
74957;SDS011;63741;42.624;26.276;2024-01-25T12:18:43;22.55;;;4.15;;
74957;SDS011;63741;42.624;26.276;2024-01-25T12:21:11;31.40;;;13.50;;
74957;SDS011;63741;42.624;26.276;2024-01-25T12:23:40;46.00;;;16.83;;
74957;SDS011;63741;42.624;26.276;2024-01-25T12:26:08;20.30;;;6.95;;
74957;SDS011;63741;42.624;26.276;2024-01-25T12:28:38;27.73;;;5.82;;
74957;SDS011;63741;42.624;26.276;2024-01-25T12:31:06;42.03;;;7.60;;
74957;SDS011;63741;42.624;26.276;2024-01-25T12:33:34;24.45;;;4.88;;
74957;SDS011;63741;42.624;26.276;2024-01-25T12:36:02;14.95;;;4.18;;
74957;SDS011;63741;42.624;26.276;2024-01-25T12:38:30;12.82;;;3.17;;
74957;SDS011;63741;42.624;26.276;2024-01-25T12:41:00;16.20;;;3.25;;
74957;SDS011;63741;42.624;26.276;2024-01-25T12:43:28;29.38;;;4.30;;
74957;SDS011;63741;42.624;26.276;2024-01-25T12:45:56;12.02;;;3.35;;
74957;SDS011;63741;42.624;26.276;2024-01-25T12:48:38;17.42;;;4.93;;
74957;SDS011;63741;42.624;26.276;2024-01-25T12:51:06;35.40;;;3.60;;
74957;SDS011;63741;42.624;26.276;2024-01-25T12:53:33;8.95;;;3.05;;
74957;SDS011;63741;42.624;26.276;2024-01-25T12:56:00;26.20;;;4.60;;
74957;SDS011;63741;42.624;26.276;2024-01-25T12:58:27;34.00;;;5.13;;
74957;SDS011;63741;42.624;26.276;2024-01-25T13:00:54;9.52;;;3.10;;
74957;SDS011;63741;42.624;26.276;2024-01-25T13:03:21;39.97;;;9.25;;
74957;SDS011;63741;42.624;26.276;2024-01-25T13:05:49;17.23;;;4.90;;
74957;SDS011;63741;42.624;26.276;2024-01-25T13:08:17;13.85;;;4.05;;
74957;SDS011;63741;42.624;26.276;2024-01-25T13:10:44;22.80;;;4.63;;
74957;SDS011;63741;42.624;26.276;2024-01-25T13:13:11;39.72;;;5.63;;
74957;SDS011;63741;42.624;26.276;2024-01-25T13:15:38;29.58;;;6.55;;
74957;SDS011;63741;42.624;26.276;2024-01-25T13:18:04;28.10;;;5.75;;
74957;SDS011;63741;42.624;26.276;2024-01-25T13:20:32;16.45;;;4.60;;
74957;SDS011;63741;42.624;26.276;2024-01-25T13:22:59;17.73;;;4.78;;
74957;SDS011;63741;42.624;26.276;2024-01-25T13:25:26;24.20;;;8.30;;
74957;SDS011;63741;42.624;26.276;2024-01-25T13:27:53;31.48;;;7.47;;
74957;SDS011;63741;42.624;26.276;2024-01-25T13:30:20;25.02;;;3.97;;
74957;SDS011;63741;42.624;26.276;2024-01-25T13:32:47;26.65;;;2.38;;
74957;SDS011;63741;42.624;26.276;2024-01-25T13:35:14;32.10;;;3.20;;
74957;SDS011;63741;42.624;26.276;2024-01-25T13:37:42;21.30;;;2.63;;
74957;SDS011;63741;42.624;26.276;2024-01-25T13:40:09;16.35;;;3.10;;
74957;SDS011;63741;42.624;26.276;2024-01-25T13:42:36;8.43;;;2.40;;
74957;SDS011;63741;42.624;26.276;2024-01-25T13:45:05;31.52;;;9.48;;
74957;SDS011;63741;42.624;26.276;2024-01-25T13:47:33;71.88;;;20.38;;
74957;SDS011;63741;42.624;26.276;2024-01-25T13:50:00;42.38;;;11.18;;
74957;SDS011;63741;42.624;26.276;2024-01-25T13:52:27;31.85;;;11.68;;
74957;SDS011;63741;42.624;26.276;2024-01-25T13:54:54;48.13;;;12.73;;
74957;SDS011;63741;42.624;26.276;2024-01-25T13:57:21;43.47;;;13.70;;
74957;SDS011;63741;42.624;26.276;2024-01-25T13:59:50;34.20;;;10.15;;
74957;SDS011;63741;42.624;26.276;2024-01-25T14:02:18;114.15;;;21.30;;
74957;SDS011;63741;42.624;26.276;2024-01-25T14:04:45;120.40;;;24.30;;
74957;SDS011;63741;42.624;26.276;2024-01-25T14:07:15;43.03;;;13.57;;
74957;SDS011;63741;42.624;26.276;2024-01-25T14:09:46;162.90;;;23.05;;
74957;SDS011;63741;42.624;26.276;2024-01-25T14:12:16;81.85;;;19.10;;
74957;SDS011;63741;42.624;26.276;2024-01-25T14:14:44;20.77;;;7.25;;
74957;SDS011;63741;42.624;26.276;2024-01-25T14:17:11;78.13;;;26.40;;
74957;SDS011;63741;42.624;26.276;2024-01-25T14:19:38;69.03;;;20.02;;